createdAt,value
2022-10-28T00:01:04.089Z,99.90
2022-10-28T00:03:38.107Z,99.90
2022-10-28T00:06:08.153Z,99.90
2022-10-28T00:08:35.708Z,99.90
2022-10-28T00:11:16.088Z,99.90
2022-10-28T00:13:43.774Z,99.90
2022-10-28T00:16:14.396Z,99.90
2022-10-28T00:18:42.419Z,99.90
2022-10-28T00:21:19.023Z,99.90
2022-10-28T00:23:46.663Z,99.90
2022-10-28T00:26:19.761Z,99.90
2022-10-28T00:28:52.562Z,99.90
2022-10-28T00:31:21.102Z,99.90
2022-10-28T00:33:48.106Z,99.90
2022-10-28T00:36:15.245Z,99.90
2022-10-28T00:38:43.370Z,99.90
2022-10-28T00:41:12.317Z,99.90
2022-10-28T00:43:51.623Z,99.90
2022-10-28T00:46:45.821Z,99.90
2022-10-28T00:49:16.323Z,99.90
2022-10-28T00:51:46.736Z,99.90
2022-10-28T00:54:14.712Z,99.90
2022-10-28T00:56:45.705Z,99.90
2022-10-28T00:59:19.734Z,99.90
2022-10-28T01:01:47.062Z,99.90
2022-10-28T01:04:14.340Z,99.90
2022-10-28T01:06:42.521Z,99.90
2022-10-28T01:09:09.412Z,99.90
2022-10-28T01:12:08.721Z,99.90
2022-10-28T01:15:03.022Z,99.90
2022-10-28T01:17:39.466Z,99.90
2022-10-28T01:20:16.637Z,99.90
2022-10-28T01:22:51.398Z,99.90
2022-10-28T01:25:52.920Z,99.90
2022-10-28T01:28:25.672Z,99.90
2022-10-28T01:31:17.373Z,99.90
2022-10-28T01:34:03.392Z,99.90
2022-10-28T01:37:02.269Z,99.90
2022-10-28T01:39:45.267Z,99.90
2022-10-28T01:42:51.183Z,99.90
2022-10-28T01:45:31.023Z,99.90
2022-10-28T01:48:00.388Z,99.90
2022-10-28T01:50:57.954Z,99.90
2022-10-28T01:53:30.268Z,99.90
2022-10-28T01:56:02.872Z,99.90
2022-10-28T01:58:32.015Z,99.90
2022-10-28T02:01:01.860Z,99.90
2022-10-28T02:03:28.829Z,99.90
2022-10-28T02:05:59.000Z,99.90
2022-10-28T02:08:47.683Z,99.90
2022-10-28T02:11:23.677Z,99.90
2022-10-28T02:14:12.529Z,99.90
2022-10-28T02:17:03.834Z,99.90
2022-10-28T02:19:33.481Z,99.90
2022-10-28T02:22:18.144Z,99.90
2022-10-28T02:24:59.491Z,99.90
2022-10-28T02:27:59.393Z,99.90
2022-10-28T02:31:02.537Z,99.90
2022-10-28T02:33:34.866Z,99.90
2022-10-28T02:36:12.164Z,99.90
2022-10-28T02:38:44.064Z,99.90
2022-10-28T02:41:35.233Z,99.90
2022-10-28T02:44:08.885Z,99.90
2022-10-28T02:46:39.058Z,99.90
2022-10-28T02:49:10.612Z,99.90
2022-10-28T02:51:46.696Z,99.90
2022-10-28T02:54:18.365Z,99.90
2022-10-28T02:57:00.576Z,99.90
2022-10-28T02:59:29.750Z,99.90
2022-10-28T03:01:57.006Z,99.90
2022-10-28T03:04:24.235Z,99.90
2022-10-28T03:06:51.276Z,99.90
2022-10-28T03:09:18.356Z,99.90
2022-10-28T03:11:45.234Z,99.90
2022-10-28T03:14:14.702Z,99.90
2022-10-28T03:16:42.857Z,99.90
2022-10-28T03:19:10.182Z,99.90
2022-10-28T03:21:37.043Z,99.90
2022-10-28T03:24:04.708Z,99.90
2022-10-28T03:26:31.617Z,99.90
2022-10-28T03:28:58.916Z,99.90
2022-10-28T03:31:25.764Z,99.90
2022-10-28T03:33:53.108Z,99.90
2022-10-28T03:36:19.969Z,99.90
2022-10-28T03:38:47.277Z,99.90
2022-10-28T03:41:14.175Z,99.90
2022-10-28T03:43:41.601Z,99.90
2022-10-28T03:46:08.505Z,99.90
2022-10-28T03:48:35.609Z,99.90
2022-10-28T03:51:02.719Z,99.90
2022-10-28T03:53:31.489Z,99.90
2022-10-28T03:56:00.383Z,99.90
2022-10-28T03:58:27.753Z,99.90
2022-10-28T04:00:55.933Z,99.90
2022-10-28T04:03:25.148Z,99.90
2022-10-28T04:05:52.502Z,99.90
2022-10-28T04:08:20.832Z,99.90
2022-10-28T04:10:48.517Z,99.90
2022-10-28T04:13:16.849Z,99.90
2022-10-28T04:15:43.842Z,99.90
2022-10-28T04:18:11.406Z,99.90
2022-10-28T04:20:38.334Z,99.90
2022-10-28T04:23:05.657Z,99.90
2022-10-28T04:25:32.646Z,99.90
2022-10-28T04:27:59.808Z,99.90
2022-10-28T04:30:26.679Z,99.90
2022-10-28T04:32:54.026Z,99.90
2022-10-28T04:35:20.930Z,99.90
2022-10-28T04:37:47.999Z,99.90
2022-10-28T04:40:14.930Z,99.90
2022-10-28T04:42:42.011Z,99.90
2022-10-28T04:45:09.397Z,99.90
2022-10-28T04:47:36.485Z,99.90
2022-10-28T04:50:04.114Z,99.90
2022-10-28T04:52:31.257Z,99.90
2022-10-28T04:54:58.291Z,99.90
2022-10-28T04:57:25.409Z,99.90
2022-10-28T04:59:52.289Z,99.90
2022-10-28T05:02:19.496Z,99.90
2022-10-28T05:04:46.424Z,99.90
2022-10-28T05:07:13.534Z,99.90
2022-10-28T05:09:40.373Z,99.90
2022-10-28T05:12:07.621Z,99.90
2022-10-28T05:14:34.533Z,99.90
2022-10-28T05:17:01.885Z,99.90
2022-10-28T05:19:29.083Z,99.90
2022-10-28T05:21:56.283Z,99.90
2022-10-28T05:24:23.166Z,99.90
2022-10-28T05:26:50.260Z,99.90
2022-10-28T05:29:19.534Z,99.90
2022-10-28T05:31:46.828Z,99.90
2022-10-28T05:34:13.659Z,99.90
2022-10-28T05:36:40.726Z,99.90
2022-10-28T05:39:07.682Z,99.90
2022-10-28T05:41:38.626Z,99.90
2022-10-28T05:44:06.054Z,99.90
2022-10-28T05:46:33.110Z,99.90
2022-10-28T05:49:00.065Z,99.90
2022-10-28T05:51:27.223Z,99.90
2022-10-28T05:53:54.628Z,99.90
2022-10-28T05:56:21.713Z,99.90
2022-10-28T06:01:21.494Z,99.90
2022-10-28T06:03:48.381Z,99.90
2022-10-28T06:06:15.461Z,99.90
2022-10-28T06:08:42.333Z,99.90
2022-10-28T06:11:07.935Z,99.90
2022-10-28T06:13:34.938Z,99.90
2022-10-28T06:16:02.151Z,99.90
2022-10-28T06:18:29.051Z,99.90
2022-10-28T06:20:59.189Z,99.90
2022-10-28T06:23:27.668Z,99.90
2022-10-28T06:25:59.432Z,99.90
2022-10-28T06:28:26.625Z,99.90
2022-10-28T06:30:53.848Z,99.90
2022-10-28T06:33:20.731Z,99.90
2022-10-28T06:35:47.846Z,99.90
2022-10-28T06:38:14.697Z,99.90
2022-10-28T06:40:42.015Z,99.90
2022-10-28T06:43:11.047Z,99.90
2022-10-28T06:45:38.505Z,99.90
2022-10-28T06:48:07.227Z,99.90
2022-10-28T06:50:36.378Z,99.90
2022-10-28T06:53:03.375Z,99.90
2022-10-28T06:55:30.895Z,99.90
2022-10-28T06:58:02.307Z,99.90
2022-10-28T07:00:34.157Z,99.90
2022-10-28T07:03:02.378Z,99.90
2022-10-28T07:05:29.624Z,99.90
2022-10-28T07:07:56.972Z,99.90
2022-10-28T07:10:24.336Z,99.90
2022-10-28T07:12:53.164Z,99.90
2022-10-28T07:15:21.010Z,99.90
2022-10-28T07:17:59.023Z,99.90
2022-10-28T07:20:27.913Z,99.90
2022-10-28T07:23:02.210Z,99.90
2022-10-28T07:25:30.988Z,99.90
2022-10-28T07:27:58.635Z,99.90
2022-10-28T07:30:26.816Z,99.90
2022-10-28T07:32:54.211Z,99.90
2022-10-28T07:35:21.794Z,99.90
2022-10-28T07:37:48.779Z,99.90
2022-10-28T07:40:16.265Z,99.90
2022-10-28T07:42:43.199Z,99.90
2022-10-28T07:45:10.748Z,99.90
2022-10-28T07:47:37.718Z,99.90
2022-10-28T07:50:06.496Z,99.90
2022-10-28T07:52:34.655Z,99.90
2022-10-28T07:55:02.901Z,99.90
2022-10-28T07:57:30.252Z,99.90
2022-10-28T07:59:57.383Z,99.90
2022-10-28T08:02:25.542Z,99.90
2022-10-28T08:04:53.520Z,99.90
2022-10-28T08:07:20.675Z,99.90
2022-10-28T08:09:47.764Z,99.90
2022-10-28T08:12:15.969Z,99.90
2022-10-28T08:14:43.104Z,94.70
2022-10-28T08:17:10.003Z,88.80
2022-10-28T08:19:37.383Z,82.10
2022-10-28T08:22:04.848Z,78.60
2022-10-28T08:24:31.955Z,74.30
2022-10-28T08:26:58.894Z,69.90
2022-10-28T08:29:29.851Z,67.90
2022-10-28T08:31:57.824Z,67.90
2022-10-28T08:34:29.867Z,67.40
2022-10-28T08:36:57.964Z,66.60
2022-10-28T08:39:25.350Z,67.70
2022-10-28T08:42:26.214Z,66.60
2022-10-28T08:45:04.343Z,65.30
2022-10-28T08:47:31.274Z,63.60
2022-10-28T08:50:18.652Z,61.80
2022-10-28T08:52:59.576Z,61.00
2022-10-28T08:55:41.257Z,61.20
2022-10-28T08:58:31.026Z,60.60
2022-10-28T09:01:02.003Z,59.60
2022-10-28T09:03:39.244Z,59.30
2022-10-28T09:06:10.867Z,58.70
2022-10-28T09:08:45.807Z,58.50
2022-10-28T09:11:54.244Z,58.00
2022-10-28T09:14:25.152Z,57.80
2022-10-28T09:17:18.081Z,56.60
2022-10-28T09:19:47.929Z,56.10
2022-10-28T09:22:25.501Z,55.50
2022-10-28T09:25:00.948Z,56.10
2022-10-28T09:27:49.983Z,55.70
2022-10-28T09:30:36.217Z,55.90
2022-10-28T09:33:27.304Z,54.70
2022-10-28T09:35:56.403Z,53.50
2022-10-28T09:38:32.394Z,53.00
2022-10-28T09:41:02.393Z,53.80
2022-10-28T09:43:35.899Z,58.00
2022-10-28T09:46:10.356Z,63.80
2022-10-28T09:48:41.912Z,69.60
2022-10-28T09:51:37.133Z,77.00
2022-10-28T09:54:04.662Z,91.60
2022-10-28T09:56:31.625Z,99.40
2022-10-28T09:59:01.409Z,99.90
2022-10-28T10:01:33.676Z,99.90
2022-10-28T10:04:02.047Z,99.90
2022-10-28T10:06:39.254Z,99.90
2022-10-28T10:09:06.437Z,99.90
2022-10-28T10:11:38.907Z,99.90
2022-10-28T10:14:08.780Z,99.90
2022-10-28T10:16:47.152Z,99.90
2022-10-28T10:19:14.290Z,99.90
2022-10-28T10:21:43.253Z,99.90
2022-10-28T10:24:37.154Z,99.90
2022-10-28T10:27:17.842Z,99.90
2022-10-28T10:29:47.279Z,99.90
2022-10-28T10:32:26.091Z,99.90
2022-10-28T10:35:09.261Z,99.90
2022-10-28T10:37:41.476Z,99.90
2022-10-28T10:40:47.033Z,99.90
2022-10-28T10:43:22.824Z,99.90
2022-10-28T10:46:16.451Z,99.90
2022-10-28T10:48:44.364Z,99.90
2022-10-28T10:51:20.881Z,99.90
2022-10-28T10:53:54.689Z,99.90
2022-10-28T10:56:33.130Z,99.90
2022-10-28T10:59:04.482Z,99.90
2022-10-28T11:01:36.549Z,99.90
2022-10-28T11:04:08.445Z,99.90
2022-10-28T11:06:48.886Z,99.90
2022-10-28T11:09:33.662Z,99.90
2022-10-28T11:12:01.399Z,99.90
2022-10-28T11:14:31.416Z,99.90
2022-10-28T11:17:01.430Z,99.90
2022-10-28T11:19:34.641Z,99.90
2022-10-28T11:22:07.561Z,99.90
2022-10-28T11:24:59.569Z,99.90
2022-10-28T11:27:53.812Z,99.90
2022-10-28T11:30:34.509Z,99.90
2022-10-28T11:33:30.181Z,99.90
2022-10-28T11:36:19.786Z,99.90
2022-10-28T11:39:03.291Z,99.90
2022-10-28T11:41:39.103Z,99.90
2022-10-28T11:44:23.729Z,99.90
2022-10-28T11:47:10.565Z,99.90
2022-10-28T11:50:02.753Z,99.90
2022-10-28T11:52:46.239Z,99.90
2022-10-28T11:55:13.258Z,99.90
2022-10-28T11:58:10.458Z,99.90
2022-10-28T12:00:55.630Z,99.90
2022-10-28T12:03:44.221Z,99.90
2022-10-28T12:06:52.003Z,99.90
2022-10-28T12:09:24.845Z,99.90
2022-10-28T12:12:07.088Z,99.90
2022-10-28T12:14:52.202Z,99.90
2022-10-28T12:17:44.736Z,99.90
2022-10-28T12:20:26.617Z,99.90
2022-10-28T12:23:04.977Z,99.90
2022-10-28T12:25:36.072Z,99.90
2022-10-28T12:28:14.384Z,99.90
2022-10-28T12:30:42.945Z,99.90
2022-10-28T12:33:26.537Z,99.90
2022-10-28T12:36:18.881Z,99.90
2022-10-28T12:38:57.376Z,99.90
2022-10-28T12:41:27.674Z,99.90
2022-10-28T12:44:08.124Z,99.90
2022-10-28T12:49:52.032Z,99.90
2022-10-28T12:52:30.518Z,99.90
2022-10-28T12:55:11.317Z,99.90
2022-10-28T12:57:40.919Z,99.90
2022-10-28T13:00:26.221Z,99.90
2022-10-28T13:03:08.061Z,99.90
2022-10-28T13:06:05.944Z,99.90
2022-10-28T13:09:00.348Z,99.90
2022-10-28T13:12:05.302Z,99.90
2022-10-28T13:15:13.525Z,99.90
2022-10-28T13:18:04.872Z,99.90
2022-10-28T13:20:55.039Z,99.90
2022-10-28T13:23:43.561Z,99.90
2022-10-28T13:26:25.350Z,99.90
2022-10-28T13:28:56.450Z,99.90
2022-10-28T13:31:24.023Z,99.90
2022-10-28T13:33:56.279Z,99.90
2022-10-28T13:36:35.488Z,99.90
2022-10-28T13:39:07.966Z,99.90
2022-10-28T13:41:43.370Z,99.90
2022-10-28T13:44:15.019Z,99.90
2022-10-28T13:47:19.197Z,99.90
2022-10-28T13:50:08.945Z,99.90
2022-10-28T13:52:40.078Z,99.90
2022-10-28T13:55:25.165Z,99.90
2022-10-28T13:58:00.814Z,99.90
2022-10-28T14:03:01.344Z,99.90
2022-10-28T14:05:37.445Z,99.90
2022-10-28T14:08:07.890Z,99.90
2022-10-28T14:10:39.558Z,99.90
2022-10-28T14:13:19.191Z,99.90
2022-10-28T14:15:48.324Z,99.90
2022-10-28T14:18:41.714Z,99.90
2022-10-28T14:21:02.918Z,99.90
2022-10-28T14:23:29.809Z,99.90
2022-10-28T14:26:01.061Z,99.90
2022-10-28T14:28:31.193Z,99.90
2022-10-28T14:31:12.833Z,99.90
2022-10-28T14:33:45.759Z,99.90
2022-10-28T14:36:16.074Z,99.90
2022-10-28T14:39:07.269Z,99.90
2022-10-28T14:41:34.204Z,99.90
2022-10-28T14:44:04.090Z,99.90
2022-10-28T14:47:07.846Z,99.90
2022-10-28T14:49:37.791Z,99.90
2022-10-28T14:52:16.403Z,99.90
2022-10-28T14:54:49.468Z,99.90
2022-10-28T14:57:22.279Z,99.90
2022-10-28T14:59:51.647Z,99.90
2022-10-28T15:02:28.285Z,99.90
2022-10-28T15:05:04.393Z,99.90
2022-10-28T15:07:37.874Z,99.90
2022-10-28T15:10:28.096Z,99.90
2022-10-28T15:12:57.568Z,99.90
2022-10-28T15:15:30.879Z,99.90
2022-10-28T15:17:58.166Z,99.90
2022-10-28T15:20:35.790Z,99.90
2022-10-28T15:23:23.268Z,99.90
2022-10-28T15:26:15.371Z,99.90
2022-10-28T15:28:43.167Z,99.90
2022-10-28T15:31:10.504Z,99.90
2022-10-28T15:33:39.601Z,99.90
2022-10-28T15:36:17.563Z,99.90
2022-10-28T15:39:05.899Z,99.90
2022-10-28T15:41:42.033Z,99.90
2022-10-28T15:44:32.713Z,99.90
2022-10-28T15:47:04.542Z,99.90
2022-10-28T15:49:31.880Z,99.90
2022-10-28T15:52:32.221Z,99.90
2022-10-28T15:55:35.495Z,99.90
2022-10-28T15:58:13.760Z,99.90
2022-10-28T16:00:57.591Z,99.90
2022-10-28T16:03:47.266Z,99.90
2022-10-28T16:06:49.729Z,99.90
2022-10-28T16:09:20.466Z,99.90
2022-10-28T16:11:54.433Z,99.90
2022-10-28T16:14:45.637Z,99.90
2022-10-28T16:17:24.741Z,99.90
2022-10-28T16:20:18.654Z,99.90
2022-10-28T16:22:47.168Z,99.90
2022-10-28T16:25:16.924Z,99.90
2022-10-28T16:27:44.056Z,99.90
2022-10-28T16:30:11.707Z,99.90
2022-10-28T16:32:43.269Z,99.90
2022-10-28T16:35:21.738Z,99.90
2022-10-28T16:37:54.692Z,99.90
2022-10-28T16:40:49.465Z,99.90
2022-10-28T16:43:16.397Z,99.90
2022-10-28T16:45:43.348Z,99.90
2022-10-28T16:48:14.259Z,99.90
2022-10-28T16:50:43.733Z,99.90
2022-10-28T16:53:14.483Z,99.90
2022-10-28T16:55:41.793Z,99.90
2022-10-28T16:58:09.024Z,99.90
2022-10-28T17:00:37.411Z,99.90
2022-10-28T17:03:05.196Z,99.90
2022-10-28T17:05:32.484Z,99.90
2022-10-28T17:07:59.946Z,99.90
2022-10-28T17:10:28.029Z,99.90
2022-10-28T17:12:55.697Z,99.90
2022-10-28T17:15:23.334Z,99.90
2022-10-28T17:17:52.223Z,99.90
2022-10-28T17:20:19.924Z,99.90
2022-10-28T17:22:47.341Z,99.90
2022-10-28T17:25:14.541Z,99.90
2022-10-28T17:27:42.364Z,99.90
2022-10-28T17:30:09.825Z,99.90
2022-10-28T17:32:36.954Z,99.90
2022-10-28T17:35:04.010Z,99.90
2022-10-28T17:37:32.597Z,99.90
2022-10-28T17:39:59.516Z,99.90
2022-10-28T17:42:26.546Z,99.90
2022-10-28T17:44:53.420Z,99.90
2022-10-28T17:47:20.509Z,99.90
2022-10-28T17:49:47.483Z,99.90
2022-10-28T17:52:14.752Z,99.90
2022-10-28T17:54:41.676Z,99.90
2022-10-28T17:57:08.917Z,99.90
2022-10-28T17:59:35.828Z,99.90
2022-10-28T18:02:03.644Z,99.90
2022-10-28T18:04:30.876Z,99.90
2022-10-28T18:06:58.410Z,99.90
2022-10-28T18:09:27.662Z,99.90
2022-10-28T18:11:54.804Z,99.90
2022-10-28T18:14:21.851Z,99.90
2022-10-28T18:16:50.306Z,99.90
2022-10-28T18:19:17.514Z,99.90
2022-10-28T18:21:45.469Z,99.90
2022-10-28T18:24:12.531Z,99.90
2022-10-28T18:26:40.911Z,99.90
2022-10-28T18:29:13.218Z,99.90
2022-10-28T18:31:42.408Z,99.90
2022-10-28T18:34:09.471Z,99.90
2022-10-28T18:36:36.619Z,99.90
2022-10-28T18:39:06.892Z,99.90
2022-10-28T18:41:40.274Z,99.90
2022-10-28T18:44:10.001Z,99.90
2022-10-28T18:46:37.755Z,99.90
2022-10-28T18:49:05.594Z,99.90
2022-10-28T18:51:34.023Z,99.90
2022-10-28T18:54:01.046Z,99.90
2022-10-28T18:56:29.419Z,99.90
2022-10-28T18:58:58.856Z,99.90
2022-10-28T19:01:28.116Z,99.90
2022-10-28T19:04:00.721Z,99.90
2022-10-28T19:06:32.117Z,99.90
2022-10-28T19:09:01.743Z,99.90
2022-10-28T19:11:31.383Z,99.90
2022-10-28T19:14:04.121Z,99.90
2022-10-28T19:16:33.776Z,99.90
2022-10-28T19:19:02.236Z,99.90
2022-10-28T19:21:29.446Z,99.90
2022-10-28T19:23:56.855Z,99.90
2022-10-28T19:26:24.334Z,99.90
2022-10-28T19:28:51.849Z,99.90
2022-10-28T19:31:22.037Z,99.90
2022-10-28T19:33:49.386Z,99.90
2022-10-28T19:36:20.565Z,99.90
2022-10-28T19:38:49.846Z,99.90
2022-10-28T19:41:19.127Z,99.90
2022-10-28T19:43:47.196Z,99.90
2022-10-28T19:46:19.542Z,99.90
2022-10-28T19:48:48.867Z,99.90
2022-10-28T19:51:18.928Z,99.90
2022-10-28T19:53:56.252Z,99.90
2022-10-28T19:56:25.627Z,99.90
2022-10-28T19:58:55.289Z,99.90
2022-10-28T20:01:24.334Z,99.90
2022-10-28T20:03:52.337Z,99.90
2022-10-28T20:06:22.691Z,99.90
2022-10-28T20:08:49.763Z,99.90
2022-10-28T20:11:26.071Z,99.90
2022-10-28T20:14:03.249Z,99.90
2022-10-28T20:16:32.033Z,99.90
2022-10-28T20:18:59.346Z,99.90
2022-10-28T20:21:28.651Z,99.90
2022-10-28T20:23:57.248Z,99.90
2022-10-28T20:26:27.474Z,99.90
2022-10-28T20:28:54.533Z,99.90
2022-10-28T20:31:23.737Z,99.90
2022-10-28T20:34:00.619Z,99.90
2022-10-28T20:36:36.615Z,99.90
2022-10-28T20:39:11.675Z,99.90
2022-10-28T20:41:40.808Z,99.90
2022-10-28T20:44:08.636Z,99.90
2022-10-28T20:46:36.811Z,99.90
2022-10-28T20:49:05.725Z,99.90
2022-10-28T20:51:33.693Z,99.90
2022-10-28T20:54:01.968Z,99.90
2022-10-28T20:56:32.231Z,99.90
2022-10-28T20:58:59.837Z,99.90
2022-10-28T21:01:29.734Z,99.90
2022-10-28T21:03:59.731Z,99.90
2022-10-28T21:06:27.135Z,99.90
2022-10-28T21:08:54.584Z,99.90
2022-10-28T21:11:23.658Z,99.90
2022-10-28T21:13:52.893Z,99.90
2022-10-28T21:16:20.672Z,99.90
2022-10-28T21:18:48.680Z,99.90
2022-10-28T21:21:17.928Z,99.90
2022-10-28T21:23:45.069Z,99.90
2022-10-28T21:26:13.310Z,99.90
2022-10-28T21:28:43.841Z,99.90
2022-10-28T21:31:13.683Z,99.90
2022-10-28T21:33:42.015Z,99.90
2022-10-28T21:36:14.615Z,99.90
2022-10-28T21:38:42.278Z,99.90
2022-10-28T21:41:14.888Z,99.90
2022-10-28T21:43:43.860Z,99.90
2022-10-28T21:46:11.589Z,99.90
2022-10-28T21:48:39.154Z,99.90
2022-10-28T21:51:11.824Z,99.90
2022-10-28T21:53:43.772Z,99.90
2022-10-28T21:56:17.730Z,99.90
2022-10-28T21:58:47.487Z,99.90
2022-10-28T22:01:17.985Z,99.90
2022-10-28T22:03:44.945Z,99.90
2022-10-28T22:06:12.450Z,99.90
2022-10-28T22:08:39.399Z,99.90
2022-10-28T22:11:18.195Z,99.90
2022-10-28T22:13:45.529Z,99.90
2022-10-28T22:16:15.046Z,99.90
2022-10-28T22:18:42.685Z,99.90
2022-10-28T22:21:21.245Z,99.90
2022-10-28T22:23:48.995Z,99.90
2022-10-28T22:26:21.521Z,99.90
2022-10-28T22:28:49.068Z,99.90
2022-10-28T22:31:19.198Z,99.90
2022-10-28T22:36:21.401Z,99.90
2022-10-28T22:38:48.735Z,99.90
2022-10-28T22:41:17.037Z,99.90
2022-10-28T22:43:50.278Z,99.90
2022-10-28T22:46:18.244Z,99.90
2022-10-28T22:48:46.456Z,99.90
2022-10-28T22:51:13.797Z,99.90
2022-10-28T22:53:41.308Z,99.90
2022-10-28T22:56:10.808Z,99.90
2022-10-28T22:58:37.858Z,99.90
2022-10-28T23:01:10.193Z,99.90
2022-10-28T23:03:42.288Z,99.90
2022-10-28T23:06:10.723Z,99.90
2022-10-28T23:08:38.941Z,99.90
2022-10-28T23:11:06.695Z,99.90
2022-10-28T23:13:34.384Z,99.90
2022-10-28T23:16:05.004Z,99.90
2022-10-28T23:18:31.943Z,99.90
2022-10-28T23:21:12.132Z,99.90
2022-10-28T23:23:39.761Z,99.90
2022-10-28T23:26:09.179Z,99.90
2022-10-28T23:28:36.086Z,99.90
2022-10-28T23:31:04.842Z,99.90
2022-10-28T23:33:33.010Z,99.90
2022-10-28T23:36:02.287Z,99.90
2022-10-28T23:38:30.104Z,99.90
2022-10-28T23:41:02.034Z,99.90
2022-10-28T23:43:30.268Z,99.90
2022-10-28T23:45:58.201Z,99.90
2022-10-28T23:48:26.071Z,99.90
2022-10-28T23:50:53.662Z,99.90
2022-10-28T23:53:21.471Z,99.90
2022-10-28T23:55:49.892Z,99.90
2022-10-28T23:58:18.741Z,99.90
